createdAt,value
2018-07-11T00:01:27.223Z,6.70
2018-07-11T00:03:57.018Z,3.67
2018-07-11T00:06:27.090Z,7.63
2018-07-11T00:08:56.489Z,4.03
2018-07-11T00:11:25.922Z,4.93
2018-07-11T00:13:55.324Z,3.63
2018-07-11T00:16:24.688Z,3.80
2018-07-11T00:18:54.445Z,3.20
2018-07-11T00:21:23.856Z,3.23
2018-07-11T00:23:53.256Z,3.73
2018-07-11T00:26:22.731Z,4.17
2018-07-11T00:28:52.119Z,4.27
2018-07-11T00:31:21.543Z,3.77
2018-07-11T00:33:50.925Z,3.57
2018-07-11T00:36:20.297Z,3.73
2018-07-11T00:38:49.698Z,3.80
2018-07-11T00:41:19.219Z,3.77
2018-07-11T00:43:48.648Z,3.70
2018-07-11T00:46:18.367Z,3.70
2018-07-11T00:48:48.560Z,3.67
2018-07-11T00:51:17.939Z,3.70
2018-07-11T00:53:47.380Z,3.60
2018-07-11T00:56:16.798Z,3.70
2018-07-11T00:58:54.534Z,4.17
2018-07-11T01:01:23.884Z,3.70
2018-07-11T01:03:55.868Z,4.00
2018-07-11T01:06:25.246Z,4.20
2018-07-11T01:08:56.554Z,4.27
2018-07-11T01:11:26.295Z,4.30
2018-07-11T01:13:55.334Z,5.20
2018-07-11T01:16:24.708Z,4.40
2018-07-11T01:18:59.195Z,4.10
2018-07-11T01:21:29.071Z,3.90
2018-07-11T01:23:58.526Z,4.17
2018-07-11T01:26:31.892Z,4.40
2018-07-11T01:29:01.304Z,4.40
2018-07-11T01:31:30.727Z,4.63
2018-07-11T01:34:00.523Z,4.00
2018-07-11T01:36:30.418Z,4.33
2018-07-11T01:39:00.526Z,4.33
2018-07-11T01:41:29.870Z,3.90
2018-07-11T01:43:59.257Z,3.60
2018-07-11T01:46:37.417Z,5.00
2018-07-11T01:49:06.772Z,4.17
2018-07-11T01:51:47.280Z,4.00
2018-07-11T01:54:16.703Z,4.20
2018-07-11T01:56:46.035Z,4.37
2018-07-11T01:59:15.418Z,4.00
2018-07-11T02:01:44.839Z,4.77
2018-07-11T02:04:14.236Z,5.37
2018-07-11T02:06:43.831Z,5.07
2018-07-11T02:09:13.396Z,5.67
2018-07-11T02:11:42.784Z,6.67
2018-07-11T02:14:12.313Z,4.50
2018-07-11T02:16:41.823Z,5.23
2018-07-11T02:19:11.619Z,5.10
2018-07-11T02:21:41.025Z,4.87
2018-07-11T02:24:10.400Z,6.10
2018-07-11T02:26:39.831Z,5.90
2018-07-11T02:29:09.247Z,5.67
2018-07-11T02:31:38.658Z,5.53
2018-07-11T02:34:07.993Z,5.63
2018-07-11T02:36:37.420Z,5.10
2018-07-11T02:39:06.802Z,6.10
2018-07-11T02:41:36.191Z,7.03
2018-07-11T02:44:05.765Z,6.23
2018-07-11T02:46:40.401Z,5.60
2018-07-11T02:49:09.856Z,6.30
2018-07-11T02:51:39.379Z,6.37
2018-07-11T02:54:08.828Z,6.00
2018-07-11T02:56:38.442Z,6.47
2018-07-11T02:59:07.884Z,7.20
2018-07-11T03:01:37.659Z,6.00
2018-07-11T03:04:07.136Z,5.97
2018-07-11T03:06:36.633Z,7.23
2018-07-11T03:09:05.723Z,7.53
2018-07-11T03:11:35.052Z,6.63
2018-07-11T03:14:04.748Z,6.33
2018-07-11T03:16:34.207Z,6.20
2018-07-11T03:19:03.619Z,7.13
2018-07-11T03:21:32.949Z,6.07
2018-07-11T03:24:02.355Z,6.63
2018-07-11T03:26:31.831Z,7.37
2018-07-11T03:29:01.360Z,7.20
2018-07-11T03:31:30.832Z,7.73
2018-07-11T03:34:00.352Z,7.67
2018-07-11T03:36:29.347Z,7.10
2018-07-11T03:38:59.039Z,7.10
2018-07-11T03:41:28.439Z,7.63
2018-07-11T03:43:57.818Z,7.07
2018-07-11T03:46:27.184Z,7.63
2018-07-11T03:48:56.590Z,7.20
2018-07-11T03:51:26.011Z,8.73
2018-07-11T03:53:55.416Z,6.90
2018-07-11T03:56:24.758Z,7.03
2018-07-11T03:58:54.329Z,6.67
2018-07-11T04:01:23.793Z,7.67
2018-07-11T04:03:53.703Z,7.07
2018-07-11T04:06:23.147Z,7.10
2018-07-11T04:08:52.544Z,6.83
2018-07-11T04:11:21.948Z,8.10
2018-07-11T04:13:51.581Z,6.70
2018-07-11T04:16:20.999Z,6.80
2018-07-11T04:18:50.382Z,8.57
2018-07-11T04:21:19.762Z,8.37
2018-07-11T04:23:49.124Z,6.73
2018-07-11T04:26:18.531Z,9.07
2018-07-11T04:28:48.221Z,7.60
2018-07-11T04:31:18.652Z,6.90
2018-07-11T04:33:48.096Z,8.47
2018-07-11T04:36:17.622Z,7.70
2018-07-11T04:38:46.996Z,7.60
2018-07-11T04:41:17.124Z,7.70
2018-07-11T04:43:46.519Z,8.63
2018-07-11T04:46:15.951Z,8.30
2018-07-11T04:48:45.335Z,8.00
2018-07-11T04:51:14.780Z,8.50
2018-07-11T04:53:45.575Z,8.10
2018-07-11T04:56:15.037Z,7.90
2018-07-11T04:58:44.457Z,8.87
2018-07-11T05:01:13.993Z,8.33
2018-07-11T05:03:43.383Z,9.37
2018-07-11T05:06:12.791Z,8.40
2018-07-11T05:08:42.099Z,8.40
2018-07-11T05:11:11.568Z,8.07
2018-07-11T05:13:42.672Z,8.20
2018-07-11T05:16:12.050Z,8.27
2018-07-11T05:18:41.100Z,7.80
2018-07-11T05:21:10.360Z,7.83
2018-07-11T05:23:39.716Z,8.50
2018-07-11T05:26:09.509Z,8.10
2018-07-11T05:28:38.910Z,7.40
2018-07-11T05:31:08.344Z,8.20
2018-07-11T05:33:37.701Z,8.53
2018-07-11T05:36:07.043Z,8.30
2018-07-11T05:38:36.472Z,8.07
2018-07-11T05:41:05.871Z,8.33
2018-07-11T05:43:35.258Z,8.60
2018-07-11T05:46:04.609Z,8.70
2018-07-11T05:48:34.003Z,8.40
2018-07-11T05:51:03.436Z,8.77
2018-07-11T05:53:32.831Z,9.50
2018-07-11T05:56:02.401Z,8.70
2018-07-11T05:58:31.758Z,8.60
2018-07-11T06:01:01.198Z,8.50
2018-07-11T06:03:30.603Z,8.50
2018-07-11T06:05:59.968Z,8.00
2018-07-11T06:08:29.317Z,7.37
2018-07-11T06:10:58.642Z,7.43
2018-07-11T06:13:28.025Z,8.10
2018-07-11T06:15:57.338Z,8.43
2018-07-11T06:18:26.680Z,8.70
2018-07-11T06:20:56.297Z,7.20
2018-07-11T06:23:25.659Z,6.93
2018-07-11T06:25:55.044Z,7.73
2018-07-11T06:28:24.392Z,7.90
2018-07-11T06:30:53.749Z,7.77
2018-07-11T06:33:23.121Z,8.07
2018-07-11T06:35:52.451Z,8.03
2018-07-11T06:38:21.870Z,7.87
2018-07-11T06:40:51.291Z,8.27
2018-07-11T06:43:20.580Z,8.40
2018-07-11T06:45:49.928Z,8.30
2018-07-11T06:48:19.243Z,8.30
2018-07-11T06:50:48.315Z,9.13
2018-07-11T06:53:17.981Z,8.50
2018-07-11T06:55:47.387Z,7.70
2018-07-11T06:58:16.330Z,8.00
2018-07-11T07:00:45.749Z,7.63
2018-07-11T07:03:15.142Z,7.57
2018-07-11T07:05:44.298Z,9.00
2018-07-11T07:08:13.522Z,8.27
2018-07-11T07:10:42.908Z,8.13
2018-07-11T07:13:12.245Z,8.47
2018-07-11T07:15:41.576Z,7.40
2018-07-11T07:18:10.936Z,9.10
2018-07-11T07:20:40.241Z,8.30
2018-07-11T07:23:09.641Z,8.80
2018-07-11T07:25:38.954Z,7.90
2018-07-11T07:28:08.297Z,9.30
2018-07-11T07:30:37.694Z,8.80
2018-07-11T07:33:07.076Z,8.20
2018-07-11T07:35:36.449Z,8.03
2018-07-11T07:38:06.059Z,7.90
2018-07-11T07:40:35.531Z,8.67
2018-07-11T07:43:04.956Z,8.97
2018-07-11T07:45:34.282Z,7.90
2018-07-11T07:48:03.689Z,8.30
2018-07-11T07:50:33.019Z,8.70
2018-07-11T07:53:02.395Z,7.70
2018-07-11T07:55:31.869Z,7.60
2018-07-11T07:58:01.233Z,8.40
2018-07-11T08:00:30.629Z,8.67
2018-07-11T08:03:00.376Z,7.37
2018-07-11T08:05:29.808Z,9.23
2018-07-11T08:07:59.167Z,9.63
2018-07-11T08:10:29.658Z,8.57
2018-07-11T08:12:59.148Z,7.70
2018-07-11T08:15:28.508Z,7.70
2018-07-11T08:17:57.836Z,8.10
2018-07-11T08:20:27.200Z,7.20
2018-07-11T08:23:21.771Z,6.87
2018-07-11T08:26:03.003Z,8.50
2018-07-11T08:31:50.260Z,7.37
2018-07-11T08:34:30.224Z,6.23
2018-07-11T08:37:12.399Z,6.70
2018-07-11T08:41:54.632Z,5.90
2018-07-11T08:45:04.922Z,6.60
2018-07-11T08:49:50.406Z,7.03
2018-07-11T08:52:47.625Z,6.30
2018-07-11T08:55:33.014Z,5.90
2018-07-11T08:58:22.159Z,6.43
2018-07-11T09:01:05.305Z,5.80
2018-07-11T09:04:28.124Z,5.60
2018-07-11T09:07:45.239Z,5.33
2018-07-11T09:12:30.480Z,5.30
2018-07-11T09:15:44.708Z,5.40
2018-07-11T09:18:59.644Z,5.50
2018-07-11T09:21:39.929Z,5.33
2018-07-11T09:24:19.061Z,5.60
2018-07-11T09:26:48.480Z,6.17
2018-07-11T09:29:17.804Z,5.73
2018-07-11T09:31:47.197Z,5.90
2018-07-11T09:34:16.708Z,6.20
2018-07-11T09:36:46.075Z,6.00
2018-07-11T09:39:15.396Z,6.93
2018-07-11T09:41:44.897Z,8.40
2018-07-11T09:44:14.251Z,6.20
2018-07-11T09:46:43.627Z,6.80
2018-07-11T09:49:13.479Z,6.10
2018-07-11T09:51:42.883Z,5.53
2018-07-11T09:54:12.223Z,5.00
2018-07-11T09:56:41.658Z,5.87
2018-07-11T09:59:12.184Z,4.90
2018-07-11T10:01:41.661Z,5.50
2018-07-11T10:04:12.445Z,4.30
2018-07-11T10:06:41.913Z,4.20
2018-07-11T10:09:11.280Z,3.60
2018-07-11T10:11:40.648Z,3.57
2018-07-11T10:14:09.963Z,3.77
2018-07-11T10:16:39.339Z,4.00
2018-07-11T10:19:08.849Z,4.20
2018-07-11T10:21:38.261Z,6.03
2018-07-11T10:24:07.710Z,8.00
2018-07-11T10:26:37.071Z,7.00
2018-07-11T10:29:06.540Z,7.90
2018-07-11T10:31:35.932Z,6.60
2018-07-11T10:34:05.484Z,6.57
2018-07-11T10:36:34.864Z,6.60
2018-07-11T10:39:05.632Z,6.27
2018-07-11T10:41:35.089Z,5.60
2018-07-11T10:44:04.475Z,6.50
2018-07-11T10:46:33.851Z,6.30
2018-07-11T10:49:04.676Z,6.80
2018-07-11T10:51:34.156Z,8.50
2018-07-11T10:54:03.592Z,6.83
2018-07-11T10:56:32.968Z,7.40
2018-07-11T10:59:02.376Z,7.80
2018-07-11T11:01:31.799Z,6.80
2018-07-11T11:04:01.275Z,7.13
2018-07-11T11:06:30.692Z,6.90
2018-07-11T11:09:00.092Z,8.20
2018-07-11T11:11:29.026Z,6.57
2018-07-11T11:13:58.387Z,8.27
2018-07-11T11:16:27.733Z,6.77
2018-07-11T11:18:57.136Z,6.80
2018-07-11T11:21:26.485Z,8.13
2018-07-11T11:23:55.855Z,8.63
2018-07-11T11:26:25.191Z,8.10
2018-07-11T11:28:54.516Z,7.73
2018-07-11T11:31:23.944Z,7.87
2018-07-11T11:33:53.290Z,8.20
2018-07-11T11:36:22.707Z,7.37
2018-07-11T11:38:52.060Z,7.20
2018-07-11T11:41:21.475Z,6.07
2018-07-11T11:43:50.815Z,7.73
2018-07-11T11:46:20.205Z,7.07
2018-07-11T11:48:49.525Z,6.97
2018-07-11T11:51:18.872Z,5.93
2018-07-11T11:53:48.267Z,5.10
2018-07-11T11:56:17.277Z,4.97
2018-07-11T11:58:46.538Z,4.50
2018-07-11T12:01:16.177Z,4.80
2018-07-11T12:03:45.544Z,4.20
2018-07-11T12:06:14.964Z,4.10
2018-07-11T12:08:44.320Z,4.10
2018-07-11T12:11:13.748Z,4.30
2018-07-11T12:13:43.119Z,3.73
2018-07-11T12:16:12.506Z,3.63
2018-07-11T12:18:41.883Z,3.80
2018-07-11T12:21:12.457Z,3.67
2018-07-11T12:23:41.803Z,3.40
2018-07-11T12:26:12.556Z,3.60
2018-07-11T12:28:41.948Z,2.63
2018-07-11T12:31:11.405Z,3.80
2018-07-11T12:33:40.749Z,4.13
2018-07-11T12:36:10.127Z,4.07
2018-07-11T12:38:39.508Z,3.47
2018-07-11T12:41:08.851Z,3.00
2018-07-11T12:43:38.258Z,4.07
2018-07-11T12:46:07.655Z,4.40
2018-07-11T12:48:42.436Z,3.40
2018-07-11T12:51:12.890Z,2.90
2018-07-11T12:53:42.191Z,2.50
2018-07-11T12:56:11.622Z,2.90
2018-07-11T12:58:41.024Z,3.03
2018-07-11T13:01:10.471Z,3.40
2018-07-11T13:03:39.899Z,3.00
2018-07-11T13:06:09.689Z,3.27
2018-07-11T13:08:39.471Z,2.87
2018-07-11T13:11:08.930Z,3.27
2018-07-11T13:13:38.314Z,3.50
2018-07-11T13:16:07.317Z,3.30
2018-07-11T13:18:37.115Z,2.83
2018-07-11T13:21:06.495Z,2.70
2018-07-11T13:23:35.863Z,2.80
2018-07-11T13:26:05.245Z,2.50
2018-07-11T13:28:34.605Z,2.70
2018-07-11T13:31:03.995Z,2.30
2018-07-11T13:33:33.358Z,2.87
2018-07-11T13:36:02.781Z,2.30
2018-07-11T13:38:32.212Z,2.47
2018-07-11T13:41:01.585Z,2.20
2018-07-11T13:43:31.031Z,2.47
2018-07-11T13:46:00.394Z,3.30
2018-07-11T13:48:29.760Z,3.23
2018-07-11T13:50:59.084Z,3.30
2018-07-11T13:53:28.458Z,3.00
2018-07-11T13:55:57.840Z,3.00
2018-07-11T13:58:27.228Z,2.50
2018-07-11T14:00:57.011Z,2.80
2018-07-11T14:03:26.005Z,2.93
2018-07-11T14:05:55.284Z,3.53
2018-07-11T14:08:24.576Z,2.00
2018-07-11T14:10:53.954Z,2.50
2018-07-11T14:13:23.367Z,2.20
2018-07-11T14:15:52.791Z,2.60
2018-07-11T14:18:22.142Z,2.60
2018-07-11T14:20:51.498Z,3.10
2018-07-11T14:23:32.972Z,2.90
2018-07-11T14:26:02.029Z,3.30
2018-07-11T14:28:31.693Z,4.27
2018-07-11T14:31:01.935Z,9.60
2018-07-11T14:33:31.898Z,13.03
2018-07-11T14:36:02.059Z,3.57
2018-07-11T14:38:31.619Z,3.33
2018-07-11T14:41:02.167Z,9.47
2018-07-11T14:43:31.583Z,3.97
2018-07-11T14:46:00.965Z,3.27
2018-07-11T14:48:30.894Z,4.00
2018-07-11T14:51:01.716Z,5.63
2018-07-11T14:53:31.471Z,38.10
2018-07-11T14:56:00.855Z,11.53
2018-07-11T14:58:30.222Z,3.43
2018-07-11T15:00:59.644Z,3.00
2018-07-11T15:03:28.959Z,2.67
2018-07-11T15:05:58.415Z,2.60
2018-07-11T15:08:27.843Z,2.33
2018-07-11T15:10:57.175Z,2.50
2018-07-11T15:13:26.648Z,2.60
2018-07-11T15:15:55.972Z,14.10
2018-07-11T15:18:25.363Z,14.03
2018-07-11T15:20:55.207Z,4.93
2018-07-11T15:23:24.579Z,4.70
2018-07-11T15:25:54.029Z,5.80
2018-07-11T15:28:23.436Z,3.13
2018-07-11T15:30:52.940Z,8.43
2018-07-11T15:33:22.596Z,17.40
2018-07-11T15:35:52.136Z,20.83
2018-07-11T15:38:21.518Z,9.20
2018-07-11T15:40:51.143Z,3.63
2018-07-11T15:43:20.528Z,2.50
2018-07-11T15:45:49.883Z,3.83
2018-07-11T15:48:20.031Z,2.10
2018-07-11T15:50:49.522Z,2.40
2018-07-11T15:53:18.867Z,2.03
2018-07-11T15:55:49.416Z,1.97
2018-07-11T15:58:20.271Z,2.20
2018-07-11T16:00:49.752Z,2.30
2018-07-11T16:03:19.461Z,1.83
2018-07-11T16:05:49.381Z,4.20
2018-07-11T16:08:20.579Z,2.60
2018-07-11T16:10:53.655Z,1.97
2018-07-11T16:13:23.111Z,2.20
2018-07-11T16:15:52.457Z,2.17
2018-07-11T16:18:21.799Z,2.37
2018-07-11T16:20:52.067Z,1.80
2018-07-11T16:23:21.063Z,2.07
2018-07-11T16:25:50.717Z,1.80
2018-07-11T16:28:20.049Z,1.80
2018-07-11T16:30:49.423Z,1.90
2018-07-11T16:33:18.828Z,1.97
2018-07-11T16:35:48.191Z,2.13
2018-07-11T16:38:17.800Z,2.73
2018-07-11T16:40:47.189Z,2.07
2018-07-11T16:43:17.663Z,2.40
2018-07-11T16:45:47.068Z,1.90
2018-07-11T16:48:16.444Z,2.40
2018-07-11T16:50:45.846Z,2.23
2018-07-11T16:53:15.296Z,2.27
2018-07-11T16:55:44.677Z,1.87
2018-07-11T16:58:17.967Z,2.20
2018-07-11T17:00:50.563Z,2.20
2018-07-11T17:03:19.943Z,2.17
2018-07-11T17:05:54.423Z,2.33
2018-07-11T17:08:29.041Z,1.90
2018-07-11T17:11:32.459Z,2.17
2018-07-11T17:14:04.842Z,2.00
2018-07-11T17:16:43.356Z,2.10
2018-07-11T17:19:22.138Z,2.90
2018-07-11T17:21:51.559Z,3.00
2018-07-11T17:24:22.107Z,3.40
2018-07-11T17:26:55.395Z,3.10
2018-07-11T17:29:27.879Z,3.20
2018-07-11T17:32:02.985Z,3.40
2018-07-11T17:34:32.634Z,3.57
2018-07-11T17:37:04.159Z,3.80
2018-07-11T17:39:57.428Z,4.00
2018-07-11T17:42:28.268Z,3.83
2018-07-11T17:45:17.318Z,3.70
2018-07-11T17:48:29.075Z,3.90
2018-07-11T17:51:02.138Z,3.90
2018-07-11T17:53:36.731Z,4.33
2018-07-11T17:56:09.543Z,3.73
2018-07-11T17:58:57.117Z,3.60
2018-07-11T18:01:48.711Z,3.80
2018-07-11T18:04:29.471Z,3.60
2018-07-11T18:07:06.191Z,2.90
2018-07-11T18:10:01.124Z,2.93
2018-07-11T18:12:52.835Z,3.07
2018-07-11T18:15:40.712Z,2.73
2018-07-11T18:18:19.978Z,2.77
2018-07-11T18:21:03.135Z,2.77
2018-07-11T18:23:38.780Z,2.47
2018-07-11T18:26:18.363Z,2.20
2018-07-11T18:29:02.864Z,2.37
2018-07-11T18:31:43.379Z,2.60
2018-07-11T18:34:23.941Z,2.27
2018-07-11T18:37:03.649Z,2.50
2018-07-11T18:39:42.882Z,2.70
2018-07-11T18:42:43.938Z,1.90
2018-07-11T18:47:26.363Z,2.27
2018-07-11T18:52:08.495Z,2.30
2018-07-11T18:55:14.224Z,2.33
2018-07-11T18:58:14.643Z,2.17
2018-07-11T19:01:01.576Z,2.57
2018-07-11T19:03:36.653Z,2.40
2018-07-11T19:06:07.414Z,2.50
2018-07-11T19:09:12.495Z,2.37
2018-07-11T19:11:59.427Z,2.83
2018-07-11T19:14:37.948Z,2.33
2018-07-11T19:19:17.657Z,2.70
2018-07-11T19:22:57.003Z,2.40
2018-07-11T19:25:31.488Z,2.23
2018-07-11T19:28:13.495Z,2.33
2018-07-11T19:32:51.239Z,3.17
2018-07-11T19:37:32.013Z,2.63
2018-07-11T19:40:19.259Z,2.60
2018-07-11T19:43:11.864Z,2.80
2018-07-11T19:45:59.210Z,3.60
2018-07-11T19:50:44.310Z,2.93
2018-07-11T19:54:29.667Z,2.90
2018-07-11T19:57:01.853Z,3.17
2018-07-11T19:59:31.462Z,3.13
2018-07-11T20:02:01.895Z,2.57
2018-07-11T20:04:31.355Z,2.77
2018-07-11T20:07:00.991Z,2.83
2018-07-11T20:09:30.792Z,3.27
2018-07-11T20:12:00.613Z,2.90
2018-07-11T20:14:30.711Z,2.80
2018-07-11T20:17:00.093Z,3.10
2018-07-11T20:19:29.723Z,3.10
2018-07-11T20:21:59.434Z,3.00
2018-07-11T20:24:28.959Z,3.13
2018-07-11T20:26:58.290Z,3.40
2018-07-11T20:29:27.675Z,3.60
2018-07-11T20:31:57.087Z,2.87
2018-07-11T20:34:26.399Z,3.07
2018-07-11T20:36:55.767Z,3.43
2018-07-11T20:39:25.128Z,3.33
2018-07-11T20:41:54.528Z,3.50
2018-07-11T20:44:24.379Z,3.03
2018-07-11T20:46:53.766Z,3.00
2018-07-11T20:49:28.637Z,3.13
2018-07-11T20:51:58.465Z,2.90
2018-07-11T20:54:27.788Z,3.40
2018-07-11T20:56:57.204Z,3.43
2018-07-11T20:59:37.575Z,3.60
2018-07-11T21:02:18.456Z,3.57
2018-07-11T21:07:05.289Z,2.90
2018-07-11T21:09:44.820Z,3.30
2018-07-11T21:12:35.724Z,3.17
2018-07-11T21:15:19.062Z,3.30
2018-07-11T21:19:59.476Z,3.50
2018-07-11T21:22:28.797Z,3.20
2018-07-11T21:24:58.123Z,3.80
2018-07-11T21:27:27.519Z,4.07
2018-07-11T21:29:57.204Z,3.50
2018-07-11T21:32:26.751Z,3.80
2018-07-11T21:34:55.743Z,3.33
2018-07-11T21:37:25.197Z,4.10
2018-07-11T21:39:54.555Z,3.77
2018-07-11T21:42:23.912Z,3.70
2018-07-11T21:44:53.263Z,3.50
2018-07-11T21:47:22.675Z,3.30
2018-07-11T21:49:52.014Z,3.80
2018-07-11T21:52:21.340Z,3.40
2018-07-11T21:54:50.716Z,3.87
2018-07-11T21:57:20.122Z,3.40
2018-07-11T21:59:49.483Z,3.73
2018-07-11T22:02:18.917Z,3.70
2018-07-11T22:04:48.334Z,3.40
2018-07-11T22:07:17.755Z,3.93
2018-07-11T22:09:47.405Z,3.90
2018-07-11T22:12:16.829Z,4.03
2018-07-11T22:14:46.165Z,4.63
2018-07-11T22:17:26.443Z,4.57
2018-07-11T22:19:54.562Z,3.80
2018-07-11T22:22:23.708Z,4.30
2018-07-11T22:24:51.868Z,4.47
2018-07-11T22:27:19.975Z,4.00
2018-07-11T22:29:48.135Z,4.10
2018-07-11T22:32:16.258Z,4.37
2018-07-11T22:34:44.356Z,4.00
2018-07-11T22:37:12.496Z,4.43
2018-07-11T22:39:40.582Z,4.57
2018-07-11T22:42:08.684Z,4.20
2018-07-11T22:44:36.793Z,4.10
2018-07-11T22:47:04.939Z,3.83
2018-07-11T22:49:33.120Z,4.33
2018-07-11T22:52:01.288Z,4.27
2018-07-11T22:54:29.390Z,4.83
2018-07-11T22:56:57.512Z,5.23
2018-07-11T22:59:25.683Z,5.20
2018-07-11T23:01:54.004Z,5.60
2018-07-11T23:04:22.139Z,5.50
2018-07-11T23:06:50.260Z,5.57
2018-07-11T23:09:18.344Z,5.17
2018-07-11T23:11:46.611Z,6.80
2018-07-11T23:14:14.745Z,5.73
2018-07-11T23:16:42.885Z,6.30
2018-07-11T23:19:10.981Z,5.90
2018-07-11T23:21:39.566Z,6.83
2018-07-11T23:24:07.572Z,7.00
2018-07-11T23:26:35.759Z,7.23
2018-07-11T23:29:04.169Z,9.00
2018-07-11T23:31:32.319Z,8.40
2018-07-11T23:34:00.448Z,7.90
2018-07-11T23:36:28.588Z,8.20
2018-07-11T23:38:56.887Z,8.63
2018-07-11T23:41:25.067Z,9.10
2018-07-11T23:43:53.223Z,8.57
2018-07-11T23:46:21.820Z,8.33
2018-07-11T23:48:49.956Z,8.40
2018-07-11T23:51:18.061Z,7.87
2018-07-11T23:53:46.220Z,8.57
2018-07-11T23:56:14.321Z,8.20
2018-07-11T23:58:42.531Z,8.70
